createdAt,value
2023-02-11T00:02:09.522Z,39.22
2023-02-11T00:04:35.877Z,45.67
2023-02-11T00:07:02.227Z,48.30
2023-02-11T00:09:30.930Z,48.38
2023-02-11T00:11:58.110Z,45.78
2023-02-11T00:14:24.428Z,48.28
2023-02-11T00:16:50.780Z,48.75
2023-02-11T00:19:17.123Z,50.65
2023-02-11T00:21:43.520Z,42.88
2023-02-11T00:24:09.855Z,44.38
2023-02-11T00:26:36.319Z,50.58
2023-02-11T00:29:04.405Z,47.83
2023-02-11T00:31:30.920Z,48.42
2023-02-11T00:33:57.320Z,48.33
2023-02-11T00:36:27.404Z,47.35
2023-02-11T00:38:55.631Z,48.67
2023-02-11T00:41:22.701Z,48.25
2023-02-11T00:43:49.624Z,47.28
2023-02-11T00:46:16.479Z,49.80
2023-02-11T00:48:43.454Z,47.80
2023-02-11T00:51:10.229Z,50.15
2023-02-11T00:53:37.173Z,45.25
2023-02-11T00:56:04.188Z,47.63
2023-02-11T00:58:30.583Z,43.38
2023-02-11T01:00:57.106Z,45.38
2023-02-11T01:03:27.715Z,47.08
2023-02-11T01:09:40.919Z,44.63
2023-02-11T01:12:07.290Z,46.88
2023-02-11T01:14:33.674Z,44.67
2023-02-11T01:17:00.032Z,46.58
2023-02-11T01:19:26.410Z,45.00
2023-02-11T01:21:52.735Z,44.22
2023-02-11T01:24:19.082Z,47.20
2023-02-11T01:26:45.380Z,47.53
2023-02-11T01:29:11.705Z,46.97
2023-02-11T01:31:38.160Z,45.38
2023-02-11T01:34:04.557Z,42.10
2023-02-11T01:36:30.840Z,40.85
2023-02-11T01:38:57.188Z,42.15
2023-02-11T01:41:23.541Z,44.45
2023-02-11T01:43:50.249Z,49.47
2023-02-11T01:46:37.101Z,46.53
2023-02-11T01:49:07.513Z,40.15
2023-02-11T01:51:41.557Z,43.60
2023-02-11T01:54:29.868Z,42.67
2023-02-11T01:57:17.329Z,39.33
2023-02-11T01:59:57.782Z,37.88
2023-02-11T02:02:43.212Z,43.65
2023-02-11T02:05:51.503Z,40.42
2023-02-11T02:08:34.920Z,44.70
2023-02-11T02:11:01.407Z,41.90
2023-02-11T02:13:29.818Z,41.80
2023-02-11T02:15:59.233Z,44.85
2023-02-11T02:18:48.688Z,41.63
2023-02-11T02:21:45.874Z,44.75
2023-02-11T02:24:39.019Z,41.22
2023-02-11T02:27:14.638Z,44.97
2023-02-11T02:32:54.439Z,42.28
2023-02-11T02:35:46.698Z,42.22
2023-02-11T02:38:23.204Z,45.03
2023-02-11T02:40:55.518Z,45.05
2023-02-11T02:43:23.594Z,44.38
2023-02-11T02:45:50.223Z,42.17
2023-02-11T02:48:25.713Z,36.25
2023-02-11T02:51:03.589Z,38.80
2023-02-11T02:54:08.424Z,42.15
2023-02-11T02:56:56.105Z,40.47
2023-02-11T02:59:25.182Z,39.33
2023-02-11T03:02:03.890Z,37.28
2023-02-11T03:04:42.158Z,43.40
2023-02-11T03:07:23.267Z,36.92
2023-02-11T03:09:58.380Z,39.50
2023-02-11T03:12:28.051Z,39.50
2023-02-11T03:14:54.544Z,46.28
2023-02-11T03:17:21.902Z,39.58
2023-02-11T03:19:50.940Z,37.40
2023-02-11T03:22:21.900Z,40.30
2023-02-11T03:24:48.864Z,37.20
2023-02-11T03:27:27.398Z,36.80
2023-02-11T03:30:11.245Z,37.53
2023-02-11T03:33:00.200Z,35.13
2023-02-11T03:35:35.948Z,38.67
2023-02-11T03:38:07.589Z,39.00
2023-02-11T03:40:39.959Z,34.33
2023-02-11T03:43:17.218Z,35.20
2023-02-11T03:45:45.922Z,33.58
2023-02-11T03:48:25.390Z,37.58
2023-02-11T03:50:53.981Z,40.72
2023-02-11T03:53:22.714Z,36.20
2023-02-11T03:55:52.344Z,34.65
2023-02-11T03:58:19.185Z,39.67
2023-02-11T04:00:45.640Z,37.85
2023-02-11T04:03:12.900Z,34.13
2023-02-11T04:05:39.922Z,45.83
2023-02-11T04:08:06.518Z,37.40
2023-02-11T04:10:33.113Z,38.92
2023-02-11T04:12:59.450Z,36.33
2023-02-11T04:15:25.793Z,36.42
2023-02-11T04:17:52.102Z,37.35
2023-02-11T04:20:18.450Z,37.08
2023-02-11T04:22:44.763Z,38.45
2023-02-11T04:25:11.225Z,44.03
2023-02-11T04:27:37.691Z,39.28
2023-02-11T04:30:05.955Z,36.35
2023-02-11T04:32:32.340Z,37.45
2023-02-11T04:34:58.646Z,31.95
2023-02-11T04:37:25.094Z,40.17
2023-02-11T04:39:51.458Z,36.08
2023-02-11T04:42:17.865Z,36.75
2023-02-11T04:44:44.194Z,34.13
2023-02-11T04:47:12.573Z,35.42
2023-02-11T04:49:39.281Z,35.03
2023-02-11T04:52:05.775Z,40.45
2023-02-11T04:54:32.079Z,39.90
2023-02-11T04:56:58.426Z,35.67
2023-02-11T04:59:25.085Z,37.72
2023-02-11T05:01:51.389Z,31.25
2023-02-11T05:04:17.754Z,38.05
2023-02-11T05:06:44.373Z,32.25
2023-02-11T05:09:14.154Z,37.42
2023-02-11T05:11:40.581Z,33.80
2023-02-11T05:14:07.210Z,37.65
2023-02-11T05:16:33.745Z,36.97
2023-02-11T05:19:00.567Z,37.88
2023-02-11T05:21:26.868Z,37.15
2023-02-11T05:23:53.242Z,35.90
2023-02-11T05:26:19.585Z,37.72
2023-02-11T05:28:46.013Z,35.65
2023-02-11T05:31:14.448Z,38.00
2023-02-11T05:33:41.301Z,33.88
2023-02-11T05:36:10.288Z,37.30
2023-02-11T05:38:36.967Z,38.22
2023-02-11T05:41:04.964Z,36.80
2023-02-11T05:43:31.387Z,37.72
2023-02-11T05:45:57.830Z,35.83
2023-02-11T05:48:24.197Z,38.22
2023-02-11T05:50:50.495Z,38.38
2023-02-11T05:53:16.817Z,41.17
2023-02-11T05:55:43.454Z,37.30
2023-02-11T05:58:10.109Z,39.75
2023-02-11T06:00:36.858Z,38.20
2023-02-11T06:03:04.438Z,38.78
2023-02-11T06:05:31.477Z,31.70
2023-02-11T06:07:57.949Z,35.15
2023-02-11T06:10:24.316Z,33.78
2023-02-11T06:12:50.651Z,34.30
2023-02-11T06:15:16.941Z,40.22
2023-02-11T06:17:43.254Z,36.13
2023-02-11T06:20:10.462Z,37.55
2023-02-11T06:22:36.868Z,39.60
2023-02-11T06:25:03.710Z,34.85
2023-02-11T06:27:30.084Z,33.70
2023-02-11T06:29:56.511Z,40.03
2023-02-11T06:32:42.771Z,37.45
2023-02-11T06:35:11.764Z,37.65
2023-02-11T06:37:38.530Z,40.33
2023-02-11T06:40:05.278Z,35.92
2023-02-11T06:42:31.582Z,34.78
2023-02-11T06:44:57.884Z,43.88
2023-02-11T06:47:24.193Z,36.05
2023-02-11T06:49:50.527Z,40.65
2023-02-11T06:52:16.844Z,34.42
2023-02-11T06:54:43.154Z,37.38
2023-02-11T06:57:09.469Z,39.30
2023-02-11T06:59:35.874Z,38.35
2023-02-11T07:02:02.217Z,38.17
2023-02-11T07:04:28.597Z,42.22
2023-02-11T07:06:54.926Z,38.47
2023-02-11T07:09:21.320Z,41.25
2023-02-11T07:11:47.690Z,40.67
2023-02-11T07:14:14.206Z,34.65
2023-02-11T07:16:40.581Z,38.78
2023-02-11T07:19:06.954Z,37.78
2023-02-11T07:21:33.393Z,32.83
2023-02-11T07:23:59.818Z,31.40
2023-02-11T07:26:26.262Z,35.15
2023-02-11T07:28:53.303Z,33.20
2023-02-11T07:31:25.603Z,31.77
2023-02-11T07:33:55.040Z,35.88
2023-02-11T07:36:24.100Z,36.22
2023-02-11T07:38:50.504Z,38.33
2023-02-11T07:41:19.383Z,36.22
2023-02-11T07:43:46.043Z,33.75
2023-02-11T07:46:19.749Z,38.45
2023-02-11T07:48:46.294Z,37.47
2023-02-11T07:51:25.019Z,34.03
2023-02-11T07:53:52.266Z,32.83
2023-02-11T07:56:20.316Z,33.17
2023-02-11T07:58:46.758Z,30.25
2023-02-11T08:01:17.128Z,34.95
2023-02-11T08:03:44.211Z,36.42
2023-02-11T08:06:14.349Z,39.47
2023-02-11T08:08:41.299Z,42.00
2023-02-11T08:11:09.660Z,35.88
2023-02-11T08:13:36.754Z,34.13
2023-02-11T08:16:03.920Z,35.10
2023-02-11T08:18:31.103Z,35.67
2023-02-11T08:21:03.187Z,36.58
2023-02-11T08:23:29.483Z,40.95
2023-02-11T08:25:55.799Z,39.28
2023-02-11T08:28:22.141Z,40.13
2023-02-11T08:30:48.647Z,36.60
2023-02-11T08:33:15.127Z,34.63
2023-02-11T08:35:41.467Z,35.00
2023-02-11T08:38:08.807Z,38.75
2023-02-11T08:40:35.181Z,34.38
2023-02-11T08:43:01.546Z,35.20
2023-02-11T08:45:28.115Z,41.15
2023-02-11T08:47:54.541Z,32.78
2023-02-11T08:50:20.857Z,37.95
2023-02-11T08:52:47.147Z,43.70
2023-02-11T08:55:13.434Z,39.58
2023-02-11T08:57:39.729Z,36.33
2023-02-11T09:00:06.678Z,37.53
2023-02-11T09:02:33.125Z,40.22
2023-02-11T09:04:59.449Z,39.67
2023-02-11T09:07:25.818Z,40.35
2023-02-11T09:09:52.181Z,41.55
2023-02-11T09:12:18.469Z,44.72
2023-02-11T09:14:44.808Z,34.53
2023-02-11T09:17:11.165Z,34.05
2023-02-11T09:19:37.631Z,34.78
2023-02-11T09:22:03.962Z,36.75
2023-02-11T09:24:30.425Z,31.95
2023-02-11T09:26:56.727Z,32.28
2023-02-11T09:29:23.495Z,34.53
2023-02-11T09:31:50.300Z,33.00
2023-02-11T09:34:16.927Z,30.90
2023-02-11T09:36:43.253Z,33.10
2023-02-11T09:39:14.012Z,33.72
2023-02-11T09:41:59.085Z,37.47
2023-02-11T09:44:29.308Z,31.23
2023-02-11T09:47:02.655Z,33.45
2023-02-11T09:49:42.088Z,34.45
2023-02-11T09:52:21.006Z,34.05
2023-02-11T09:55:02.596Z,30.67
2023-02-11T09:57:33.828Z,28.33
2023-02-11T10:00:01.358Z,30.35
2023-02-11T10:02:56.286Z,33.67
2023-02-11T10:05:53.017Z,33.20
2023-02-11T10:08:26.988Z,33.80
2023-02-11T10:11:00.513Z,33.08
2023-02-11T10:13:45.937Z,36.67
2023-02-11T10:16:40.539Z,32.58
2023-02-11T10:19:41.241Z,33.97
2023-02-11T10:22:27.086Z,31.08
2023-02-11T10:24:59.767Z,32.83
2023-02-11T10:27:35.592Z,32.75
2023-02-11T10:30:20.785Z,29.08
2023-02-11T10:33:00.662Z,31.08
2023-02-11T10:35:27.203Z,33.20
2023-02-11T10:37:55.691Z,29.67
2023-02-11T10:40:25.048Z,30.58
2023-02-11T10:42:55.787Z,31.45
2023-02-11T10:45:28.208Z,36.55
2023-02-11T10:47:55.339Z,25.90
2023-02-11T10:50:27.738Z,26.45
2023-02-11T10:53:11.776Z,28.40
2023-02-11T10:55:38.450Z,29.77
2023-02-11T10:58:05.709Z,28.70
2023-02-11T11:00:39.027Z,26.35
2023-02-11T11:03:16.889Z,25.42
2023-02-11T11:05:52.640Z,23.20
2023-02-11T11:08:19.458Z,26.10
2023-02-11T11:11:04.362Z,26.38
2023-02-11T11:13:34.425Z,25.50
2023-02-11T12:23:36.296Z,25.45
2023-02-11T12:26:32.156Z,23.10
2023-02-11T12:29:16.978Z,24.27
2023-02-11T12:32:03.167Z,21.30
2023-02-11T12:34:36.722Z,26.35
2023-02-11T12:37:17.044Z,23.02
2023-02-11T12:40:07.986Z,20.55
2023-02-11T12:43:17.413Z,24.05
2023-02-11T12:46:32.143Z,21.58
2023-02-11T12:49:30.142Z,24.85
2023-02-11T12:52:25.065Z,20.70
2023-02-11T12:55:02.144Z,20.77
2023-02-11T12:57:32.587Z,20.63
2023-02-11T13:00:06.798Z,21.35
2023-02-11T13:02:51.246Z,19.25
2023-02-11T13:05:29.827Z,19.25
2023-02-11T13:08:29.306Z,17.88
2023-02-11T13:10:59.779Z,22.73
2023-02-11T14:00:58.436Z,17.60
2023-02-11T14:03:46.996Z,14.55
2023-02-11T14:06:39.050Z,14.63
2023-02-11T14:09:08.767Z,14.63
2023-02-11T14:11:41.590Z,15.80
2023-02-11T14:14:27.414Z,14.80
2023-02-11T14:17:00.005Z,18.08
2023-02-11T14:19:41.034Z,18.88
2023-02-11T14:22:10.079Z,17.08
2023-02-11T14:24:36.429Z,14.52
2023-02-11T14:27:13.098Z,21.77
2023-02-11T14:30:02.706Z,17.48
2023-02-11T14:32:51.819Z,19.83
2023-02-11T14:35:40.040Z,16.95
2023-02-11T14:38:25.282Z,19.48
2023-02-11T14:41:06.272Z,18.92
2023-02-11T14:43:43.391Z,16.13
2023-02-11T14:46:10.019Z,22.52
2023-02-11T14:48:39.061Z,17.20
2023-02-11T14:51:20.411Z,16.77
2023-02-11T14:53:49.001Z,14.65
2023-02-11T14:56:26.248Z,16.20
2023-02-11T14:58:54.445Z,19.08
2023-02-11T15:01:32.405Z,17.13
2023-02-11T15:04:00.516Z,13.77
2023-02-11T15:06:31.894Z,18.02
2023-02-11T15:09:05.941Z,16.42
2023-02-11T15:11:39.662Z,19.70
2023-02-11T15:14:15.802Z,16.17
2023-02-11T15:16:45.403Z,18.27
2023-02-11T15:19:25.802Z,19.98
2023-02-11T15:21:52.952Z,21.85
2023-02-11T15:24:29.490Z,20.42
2023-02-11T15:27:03.332Z,17.92
2023-02-11T15:29:38.829Z,19.58
2023-02-11T15:34:33.788Z,19.17
2023-02-11T15:37:00.209Z,20.67
2023-02-11T15:39:41.055Z,22.10
2023-02-11T15:42:35.841Z,21.60
2023-02-11T15:45:16.020Z,18.90
2023-02-11T15:47:49.099Z,20.33
2023-02-11T15:50:25.361Z,22.05
2023-02-11T15:52:53.280Z,23.30
2023-02-11T15:55:20.245Z,21.95
2023-02-11T15:57:52.325Z,25.15
2023-02-11T16:00:21.444Z,25.50
2023-02-11T16:02:50.678Z,24.25
2023-02-11T16:05:35.119Z,25.55
2023-02-11T16:08:19.837Z,24.75
2023-02-11T16:11:08.657Z,26.23
2023-02-11T16:13:47.376Z,21.38
2023-02-11T16:16:24.269Z,23.85
2023-02-11T16:19:04.228Z,23.73
2023-02-11T16:21:36.128Z,26.80
2023-02-11T16:24:03.796Z,28.08
2023-02-11T16:26:41.097Z,25.00
2023-02-11T16:29:10.370Z,32.03
2023-02-11T16:31:39.433Z,26.88
2023-02-11T16:34:15.312Z,31.55
2023-02-11T16:36:42.189Z,31.27
2023-02-11T16:39:08.896Z,29.90
2023-02-11T16:41:35.321Z,24.23
2023-02-11T16:44:01.665Z,27.30
2023-02-11T16:46:28.160Z,25.48
2023-02-11T16:48:56.257Z,28.60
2023-02-11T16:51:22.593Z,28.75
2023-02-11T16:53:48.978Z,27.27
2023-02-11T16:56:17.499Z,30.45
2023-02-11T16:58:44.975Z,29.00
2023-02-11T17:01:13.961Z,28.65
2023-02-11T17:03:40.695Z,30.05
2023-02-11T17:06:10.657Z,24.63
2023-02-11T17:08:37.113Z,28.92
2023-02-11T17:11:03.587Z,25.30
2023-02-11T17:13:30.050Z,28.27
2023-02-11T17:15:56.526Z,35.03
2023-02-11T17:18:22.934Z,38.00
2023-02-11T17:20:49.465Z,33.35
2023-02-11T17:23:15.973Z,45.70
2023-02-11T17:25:42.281Z,48.40
2023-02-11T17:28:09.083Z,29.92
2023-02-11T17:30:35.590Z,25.83
2023-02-11T17:33:01.938Z,27.58
2023-02-11T17:35:28.287Z,27.63
2023-02-11T17:37:54.816Z,30.52
2023-02-11T17:40:21.303Z,28.38
2023-02-11T17:42:47.591Z,27.73
2023-02-11T17:45:14.105Z,32.70
2023-02-11T17:47:40.460Z,31.70
2023-02-11T17:50:07.917Z,28.90
2023-02-11T17:52:34.547Z,32.35
2023-02-11T17:55:00.894Z,30.13
2023-02-11T17:57:27.495Z,34.75
2023-02-11T17:59:53.899Z,37.22
2023-02-11T18:02:20.572Z,30.42
2023-02-11T18:04:47.038Z,24.65
2023-02-11T18:07:14.360Z,26.77
2023-02-11T18:09:41.286Z,26.67
2023-02-11T18:12:08.965Z,28.23
2023-02-11T18:14:35.318Z,28.25
2023-02-11T18:17:01.721Z,28.23
2023-02-11T18:19:30.547Z,26.40
2023-02-11T18:22:00.540Z,26.17
2023-02-11T18:24:27.409Z,27.50
2023-02-11T18:26:53.811Z,25.83
2023-02-11T18:29:20.212Z,28.52
2023-02-11T18:31:46.619Z,26.08
2023-02-11T18:34:13.172Z,33.97
2023-02-11T18:36:39.584Z,30.35
2023-02-11T18:39:06.363Z,26.17
2023-02-11T18:41:32.909Z,24.52
2023-02-11T18:44:02.559Z,23.77
2023-02-11T18:46:29.492Z,24.15
2023-02-11T18:48:56.376Z,27.48
2023-02-11T18:51:23.180Z,24.55
2023-02-11T18:53:49.572Z,23.83
2023-02-11T18:56:20.125Z,20.02
2023-02-11T18:58:47.105Z,25.77
2023-02-11T19:01:20.786Z,27.73
2023-02-11T19:03:48.142Z,24.65
2023-02-11T19:06:25.285Z,28.73
2023-02-11T19:08:52.650Z,23.33
2023-02-11T19:11:19.795Z,24.85
2023-02-11T19:13:47.787Z,28.85
2023-02-11T19:16:16.688Z,27.80
2023-02-11T19:18:43.106Z,28.33
2023-02-11T19:21:10.865Z,25.77
2023-02-11T19:23:38.169Z,28.40
2023-02-11T19:26:06.159Z,26.55
2023-02-11T19:28:32.995Z,25.95
2023-02-11T19:31:06.146Z,31.38
2023-02-11T19:33:32.722Z,27.17
2023-02-11T19:36:04.998Z,28.40
2023-02-11T19:38:31.327Z,25.73
2023-02-11T19:40:58.223Z,28.23
2023-02-11T19:43:25.679Z,28.60
2023-02-11T19:45:55.648Z,28.90
2023-02-11T19:48:23.180Z,30.73
2023-02-11T19:50:49.830Z,26.42
2023-02-11T19:53:16.226Z,30.02
2023-02-11T19:55:42.568Z,25.70
2023-02-11T19:58:08.906Z,29.27
2023-02-11T20:00:35.249Z,25.30
2023-02-11T20:03:01.658Z,30.30
2023-02-11T20:05:28.061Z,28.08
2023-02-11T20:07:54.343Z,25.75
2023-02-11T20:10:20.625Z,27.80
2023-02-11T20:12:46.937Z,29.23
2023-02-11T20:15:13.304Z,27.05
2023-02-11T20:17:39.620Z,25.13
2023-02-11T20:20:06.482Z,26.02
2023-02-11T20:22:32.803Z,25.85
2023-02-11T20:24:59.158Z,27.83
2023-02-11T20:27:28.873Z,32.38
2023-02-11T20:29:55.527Z,25.05
2023-02-11T20:32:22.194Z,24.23
2023-02-11T20:34:48.578Z,26.25
2023-02-11T20:37:14.930Z,26.23
2023-02-11T20:39:44.492Z,23.85
2023-02-11T20:42:11.935Z,23.77
2023-02-11T20:44:38.859Z,26.30
2023-02-11T20:47:05.327Z,25.90
2023-02-11T20:49:31.789Z,26.90
2023-02-11T20:51:58.404Z,27.63
2023-02-11T20:54:25.713Z,27.83
2023-02-11T20:56:53.781Z,28.42
2023-02-11T20:59:20.981Z,28.80
2023-02-11T21:01:49.888Z,33.55
2023-02-11T21:04:20.134Z,35.70
2023-02-11T21:06:49.665Z,36.95
2023-02-11T21:09:21.674Z,38.53
2023-02-11T21:11:49.254Z,33.33
2023-02-11T21:14:15.606Z,29.08
2023-02-11T21:16:42.152Z,34.42
2023-02-11T21:19:08.453Z,29.40
2023-02-11T21:21:36.798Z,32.47
2023-02-11T21:24:04.129Z,29.25
2023-02-11T21:26:30.423Z,31.88
2023-02-11T21:28:56.816Z,31.50
2023-02-11T21:31:29.164Z,37.47
2023-02-11T21:33:56.047Z,32.90
2023-02-11T21:36:23.872Z,28.85
2023-02-11T21:38:50.431Z,29.33
2023-02-11T21:41:17.846Z,26.63
2023-02-11T21:43:44.211Z,51.30
2023-02-11T21:46:13.362Z,52.15
2023-02-11T21:48:39.777Z,51.83
2023-02-11T21:51:09.296Z,45.90
2023-02-11T21:53:35.628Z,38.92
2023-02-11T21:56:08.161Z,36.72
2023-02-11T21:58:35.356Z,36.88
2023-02-11T22:01:01.861Z,30.00
2023-02-11T22:03:28.216Z,24.45
2023-02-11T22:05:54.726Z,24.83
2023-02-11T22:08:21.240Z,24.98
2023-02-11T22:10:47.520Z,31.38
2023-02-11T22:13:13.849Z,26.65
2023-02-11T22:15:40.195Z,28.02
2023-02-11T22:18:06.505Z,31.58
2023-02-11T22:20:32.898Z,31.55
2023-02-11T22:22:59.222Z,28.17
2023-02-11T22:25:25.548Z,34.13
2023-02-11T22:27:51.894Z,35.03
2023-02-11T22:30:18.992Z,34.65
2023-02-11T22:32:45.375Z,35.90
2023-02-11T22:35:11.660Z,35.03
2023-02-11T22:37:38.111Z,33.85
2023-02-11T22:40:04.896Z,37.35
2023-02-11T22:42:31.237Z,36.10
2023-02-11T22:44:57.612Z,33.45
2023-02-11T22:47:23.954Z,38.25
2023-02-11T22:49:50.263Z,34.60
2023-02-11T22:52:16.669Z,32.85
2023-02-11T22:54:42.997Z,32.28
2023-02-11T22:57:09.281Z,34.45
2023-02-11T22:59:35.592Z,34.28
2023-02-11T23:02:02.070Z,33.72
2023-02-11T23:04:28.534Z,33.33
2023-02-11T23:06:54.849Z,31.42
2023-02-11T23:09:21.182Z,32.65
2023-02-11T23:11:49.272Z,33.65
2023-02-11T23:14:15.554Z,35.10
2023-02-11T23:16:41.975Z,29.80
2023-02-11T23:19:08.986Z,31.30
2023-02-11T23:21:38.001Z,32.17
2023-02-11T23:24:08.365Z,31.67
2023-02-11T23:26:35.080Z,32.85
2023-02-11T23:29:01.748Z,30.17
2023-02-11T23:31:33.881Z,32.13
2023-02-11T23:34:01.362Z,31.55
2023-02-11T23:36:27.704Z,32.28
2023-02-11T23:38:54.264Z,32.75
2023-02-11T23:41:21.034Z,27.00
2023-02-11T23:43:54.268Z,31.88
2023-02-11T23:46:24.394Z,28.52
2023-02-11T23:48:51.850Z,29.10
2023-02-11T23:51:19.050Z,29.75
2023-02-11T23:53:46.131Z,30.25
2023-02-11T23:56:18.492Z,27.50
2023-02-11T23:58:48.115Z,29.38
